FNF257 ESSV-EKCH
Flight info
| Callsign | FNF257 |
|---|---|
| Flight time | 1h 6m |
| Altitude | 24000 |
| Route | HANSA DCT MOVIS DCT KOTAM L990 EKRAL P605 TIDVU |
| Aircraft | PC12/L-SDFGRWY/S |
Departure
| Time | 2026-04-30 20:30 |
|---|---|
| Airport | Visby Airport (ESSV) |
Arrival
| Time | 2026-04-30 21:37 |
|---|---|
| Airport | Copenhagen Kastrup Airport (EKCH) |
| Time | Latitude | Longitude | Altitude | Speed | Heading |
|---|---|---|---|---|---|
| 2026-04-30 20:15 | 57.66163 | 18.34003 | 140 ft | 0 kts | 335° |
| 2026-04-30 20:27 | 57.66137 | 18.34110 | 140 ft | 19 kts | 148° |
| 2026-04-30 20:27 | 57.65967 | 18.34308 | 145 ft | 24 kts | 111° |
| 2026-04-30 20:28 | 57.66342 | 18.34662 | 145 ft | 32 kts | 21° |
| 2026-04-30 20:28 | 57.66813 | 18.34995 | 141 ft | 38 kts | 12° |
| 2026-04-30 20:29 | 57.66859 | 18.35039 | 144 ft | 1 kts | 201° |
| 2026-04-30 20:30 | 57.66013 | 18.34438 | 250 ft | 98 kts | 201° |
| 2026-04-30 20:30 | 57.63550 | 18.34205 | 1279 ft | 147 kts | 196° |
| 2026-04-30 20:31 | 57.61594 | 18.29389 | 2947 ft | 228 kts | 256° |
| 2026-04-30 20:32 | 57.60499 | 18.24373 | 4433 ft | 103 kts | 254° |
| 2026-04-30 20:32 | 57.59834 | 18.22060 | 4465 ft | 102 kts | 247° |
| 2026-04-30 20:33 | 57.59370 | 18.21018 | 4469 ft | 105 kts | 239° |
| 2026-04-30 20:33 | 57.58482 | 18.18896 | 4477 ft | 104 kts | 243° |
| 2026-04-30 20:33 | 57.58050 | 18.17824 | 4512 ft | 101 kts | 243° |
| 2026-04-30 20:34 | 57.57009 | 18.15169 | 4526 ft | 157 kts | 240° |
| 2026-04-30 20:34 | 57.55734 | 18.12068 | 5795 ft | 164 kts | 240° |
| 2026-04-30 20:35 | 57.55018 | 18.10290 | 6232 ft | 179 kts | 239° |
| 2026-04-30 20:35 | 57.54243 | 18.08372 | 6675 ft | 191 kts | 239° |
| 2026-04-30 20:35 | 57.52572 | 18.04255 | 7510 ft | 206 kts | 239° |
| 2026-04-30 20:36 | 57.51697 | 18.02100 | 7925 ft | 211 kts | 238° |
| 2026-04-30 20:36 | 57.50804 | 17.99903 | 8358 ft | 214 kts | 239° |
| 2026-04-30 20:36 | 57.49861 | 17.94857 | 9230 ft | 208 kts | 264° |
| 2026-04-30 20:37 | 57.49494 | 17.92226 | 9675 ft | 212 kts | 261° |
| 2026-04-30 20:37 | 57.49061 | 17.89629 | 10120 ft | 214 kts | 259° |
| 2026-04-30 20:37 | 57.48604 | 17.86978 | 10533 ft | 216 kts | 260° |
| 2026-04-30 20:37 | 57.48154 | 17.84306 | 10943 ft | 217 kts | 260° |
| 2026-04-30 20:38 | 57.47703 | 17.81616 | 11356 ft | 219 kts | 260° |
| 2026-04-30 20:38 | 57.47246 | 17.78899 | 11775 ft | 221 kts | 261° |
| 2026-04-30 20:38 | 57.46785 | 17.76167 | 12198 ft | 223 kts | 261° |
| 2026-04-30 20:39 | 57.45848 | 17.70629 | 13061 ft | 226 kts | 261° |
| 2026-04-30 20:39 | 57.45374 | 17.67832 | 13499 ft | 228 kts | 261° |
| 2026-04-30 20:39 | 57.44895 | 17.65012 | 13948 ft | 229 kts | 261° |
| 2026-04-30 20:40 | 57.43928 | 17.59329 | 14775 ft | 232 kts | 261° |
| 2026-04-30 20:40 | 57.43440 | 17.56467 | 15183 ft | 233 kts | 261° |
| 2026-04-30 20:40 | 57.42947 | 17.53582 | 15598 ft | 234 kts | 261° |
| 2026-04-30 20:41 | 57.41955 | 17.47792 | 16442 ft | 236 kts | 261° |
| 2026-04-30 20:41 | 57.41456 | 17.44891 | 16871 ft | 237 kts | 261° |
| 2026-04-30 20:41 | 57.40956 | 17.41980 | 17310 ft | 237 kts | 261° |
| 2026-04-30 20:41 | 57.40453 | 17.39063 | 17754 ft | 237 kts | 261° |
| 2026-04-30 20:42 | 57.39950 | 17.36144 | 18196 ft | 238 kts | 261° |
| 2026-04-30 20:42 | 57.39444 | 17.33219 | 18662 ft | 238 kts | 261° |
| 2026-04-30 20:42 | 57.38438 | 17.27411 | 19452 ft | 238 kts | 261° |
| 2026-04-30 20:43 | 57.37923 | 17.24449 | 19868 ft | 238 kts | 261° |
| 2026-04-30 20:43 | 57.37422 | 17.21568 | 20278 ft | 238 kts | 261° |
| 2026-04-30 20:43 | 57.36913 | 17.18650 | 20705 ft | 238 kts | 261° |
| 2026-04-30 20:44 | 57.35897 | 17.12831 | 21557 ft | 237 kts | 261° |
| 2026-04-30 20:44 | 57.35389 | 17.09928 | 21995 ft | 237 kts | 261° |
| 2026-04-30 20:44 | 57.34372 | 17.04136 | 22895 ft | 236 kts | 261° |
| 2026-04-30 20:45 | 57.33358 | 16.98374 | 23823 ft | 235 kts | 261° |
| 2026-04-30 20:45 | 57.32851 | 16.95502 | 24224 ft | 234 kts | 261° |
| 2026-04-30 20:45 | 57.32337 | 16.92560 | 24340 ft | 249 kts | 261° |
| 2026-04-30 20:46 | 57.30589 | 16.82692 | 24352 ft | 284 kts | 259° |
| 2026-04-30 20:46 | 57.29964 | 16.79193 | 24349 ft | 289 kts | 259° |
| 2026-04-30 20:47 | 57.28686 | 16.72028 | 24354 ft | 297 kts | 259° |
| 2026-04-30 20:47 | 57.28037 | 16.68401 | 24353 ft | 298 kts | 259° |
| 2026-04-30 20:48 | 57.26735 | 16.61154 | 24351 ft | 300 kts | 258° |
| 2026-04-30 20:48 | 57.26076 | 16.57495 | 24346 ft | 300 kts | 258° |
| 2026-04-30 20:48 | 57.25415 | 16.53829 | 24347 ft | 301 kts | 258° |
| 2026-04-30 20:48 | 57.24752 | 16.50165 | 24341 ft | 301 kts | 258° |
| 2026-04-30 20:49 | 57.24088 | 16.46496 | 24345 ft | 301 kts | 258° |
| 2026-04-30 20:49 | 57.23422 | 16.42829 | 24341 ft | 301 kts | 258° |
| 2026-04-30 20:49 | 57.22755 | 16.39158 | 24341 ft | 302 kts | 258° |
| 2026-04-30 20:50 | 57.20494 | 16.32606 | 24346 ft | 315 kts | 223° |
| 2026-04-30 20:50 | 57.18771 | 16.30098 | 24350 ft | 316 kts | 221° |
| 2026-04-30 20:50 | 57.17021 | 16.27646 | 24349 ft | 315 kts | 221° |
| 2026-04-30 20:50 | 57.15291 | 16.25179 | 24348 ft | 314 kts | 221° |
| 2026-04-30 20:51 | 57.13578 | 16.22697 | 24344 ft | 313 kts | 221° |
| 2026-04-30 20:51 | 57.10151 | 16.17781 | 24347 ft | 312 kts | 221° |
| 2026-04-30 20:51 | 57.08437 | 16.15335 | 24347 ft | 311 kts | 221° |
| 2026-04-30 20:52 | 57.06729 | 16.12894 | 24348 ft | 311 kts | 221° |
| 2026-04-30 20:52 | 57.05022 | 16.10456 | 24348 ft | 311 kts | 221° |
| 2026-04-30 20:52 | 57.01608 | 16.05594 | 24349 ft | 310 kts | 221° |
| 2026-04-30 20:53 | 56.99901 | 16.03168 | 24348 ft | 310 kts | 221° |
| 2026-04-30 20:53 | 56.98199 | 16.00750 | 24348 ft | 310 kts | 221° |
| 2026-04-30 20:53 | 56.96513 | 15.98359 | 24352 ft | 310 kts | 221° |
| 2026-04-30 20:54 | 56.93086 | 15.93507 | 24354 ft | 309 kts | 221° |
| 2026-04-30 20:54 | 56.91405 | 15.91131 | 24355 ft | 309 kts | 221° |
| 2026-04-30 20:54 | 56.89701 | 15.88725 | 24352 ft | 309 kts | 221° |
| 2026-04-30 20:55 | 56.86297 | 15.83929 | 24353 ft | 309 kts | 221° |
| 2026-04-30 20:55 | 56.84598 | 15.81539 | 24355 ft | 308 kts | 220° |
| 2026-04-30 20:55 | 56.82897 | 15.79149 | 24357 ft | 308 kts | 220° |
| 2026-04-30 20:56 | 56.79498 | 15.74381 | 24359 ft | 308 kts | 220° |
| 2026-04-30 20:56 | 56.77798 | 15.72001 | 24357 ft | 308 kts | 220° |
| 2026-04-30 20:56 | 56.74398 | 15.67250 | 24360 ft | 308 kts | 220° |
| 2026-04-30 20:57 | 56.72696 | 15.64874 | 24358 ft | 308 kts | 220° |
| 2026-04-30 20:57 | 56.70997 | 15.62506 | 24361 ft | 308 kts | 220° |
| 2026-04-30 20:57 | 56.69296 | 15.60138 | 24360 ft | 308 kts | 220° |
| 2026-04-30 20:58 | 56.65894 | 15.55412 | 24358 ft | 308 kts | 220° |
| 2026-04-30 20:58 | 56.64193 | 15.53052 | 24358 ft | 308 kts | 220° |
| 2026-04-30 20:58 | 56.62492 | 15.50696 | 24362 ft | 307 kts | 220° |
| 2026-04-30 20:58 | 56.60792 | 15.48343 | 24360 ft | 308 kts | 220° |
| 2026-04-30 20:59 | 56.57387 | 15.43640 | 24359 ft | 307 kts | 220° |
| 2026-04-30 20:59 | 56.55708 | 15.41325 | 24359 ft | 307 kts | 220° |
| 2026-04-30 21:00 | 56.52305 | 15.36640 | 24360 ft | 307 kts | 220° |
| 2026-04-30 21:00 | 56.48893 | 15.31953 | 24364 ft | 307 kts | 220° |
| 2026-04-30 21:01 | 56.45484 | 15.27281 | 24363 ft | 307 kts | 220° |
| 2026-04-30 21:01 | 56.43778 | 15.24949 | 24364 ft | 307 kts | 219° |
| 2026-04-30 21:01 | 56.40362 | 15.20284 | 24368 ft | 308 kts | 219° |
| 2026-04-30 21:02 | 56.38656 | 15.17958 | 24366 ft | 308 kts | 219° |
| 2026-04-30 21:02 | 56.36947 | 15.15631 | 24368 ft | 308 kts | 219° |
| 2026-04-30 21:02 | 56.35240 | 15.13310 | 24359 ft | 308 kts | 219° |
| 2026-04-30 21:02 | 56.33530 | 15.10986 | 24367 ft | 308 kts | 219° |
| 2026-04-30 21:03 | 56.31821 | 15.08666 | 24366 ft | 308 kts | 219° |
| 2026-04-30 21:03 | 56.30108 | 15.06344 | 24366 ft | 308 kts | 219° |
| 2026-04-30 21:03 | 56.28395 | 15.04026 | 24370 ft | 308 kts | 219° |
| 2026-04-30 21:03 | 56.26681 | 15.01707 | 24370 ft | 308 kts | 219° |
| 2026-04-30 21:04 | 56.24967 | 14.99393 | 24368 ft | 308 kts | 219° |
| 2026-04-30 21:04 | 56.23832 | 14.97861 | 24370 ft | 308 kts | 219° |
| 2026-04-30 21:04 | 56.19845 | 14.92490 | 24368 ft | 308 kts | 219° |
| 2026-04-30 21:05 | 56.18127 | 14.90181 | 24369 ft | 308 kts | 219° |
| 2026-04-30 21:05 | 56.16411 | 14.87876 | 24369 ft | 308 kts | 219° |
| 2026-04-30 21:05 | 56.14691 | 14.85568 | 24369 ft | 308 kts | 219° |
| 2026-04-30 21:05 | 56.13553 | 14.83972 | 24362 ft | 306 kts | 224° |
| 2026-04-30 21:06 | 56.12227 | 14.81111 | 24367 ft | 301 kts | 238° |
| 2026-04-30 21:06 | 56.11011 | 14.78050 | 24367 ft | 301 kts | 239° |
| 2026-04-30 21:06 | 56.09798 | 14.74986 | 24370 ft | 302 kts | 238° |
| 2026-04-30 21:06 | 56.08571 | 14.71935 | 24366 ft | 302 kts | 238° |
| 2026-04-30 21:07 | 56.07339 | 14.68889 | 24365 ft | 302 kts | 238° |
| 2026-04-30 21:07 | 56.06108 | 14.65836 | 24367 ft | 302 kts | 238° |
| 2026-04-30 21:07 | 56.04878 | 14.62782 | 24366 ft | 302 kts | 238° |
| 2026-04-30 21:07 | 56.03648 | 14.59736 | 24368 ft | 302 kts | 238° |
| 2026-04-30 21:08 | 56.02416 | 14.56691 | 24377 ft | 302 kts | 238° |
| 2026-04-30 21:08 | 56.01182 | 14.53645 | 24380 ft | 302 kts | 238° |
| 2026-04-30 21:08 | 55.99948 | 14.50600 | 24380 ft | 302 kts | 238° |
| 2026-04-30 21:08 | 55.98713 | 14.47559 | 24383 ft | 302 kts | 238° |
| 2026-04-30 21:09 | 55.97477 | 14.44519 | 24383 ft | 302 kts | 238° |
| 2026-04-30 21:09 | 55.96241 | 14.41481 | 24385 ft | 302 kts | 238° |
| 2026-04-30 21:09 | 55.95004 | 14.38446 | 24387 ft | 302 kts | 238° |
| 2026-04-30 21:09 | 55.93767 | 14.35412 | 24387 ft | 302 kts | 238° |
| 2026-04-30 21:10 | 55.92529 | 14.32382 | 24392 ft | 302 kts | 238° |
| 2026-04-30 21:10 | 55.91289 | 14.29351 | 24392 ft | 302 kts | 238° |
| 2026-04-30 21:10 | 55.90049 | 14.26322 | 24391 ft | 302 kts | 237° |
| 2026-04-30 21:10 | 55.88806 | 14.23291 | 24392 ft | 303 kts | 237° |
| 2026-04-30 21:11 | 55.87943 | 14.21189 | 24392 ft | 303 kts | 237° |
| 2026-04-30 21:11 | 55.86701 | 14.18167 | 24390 ft | 303 kts | 237° |
| 2026-04-30 21:11 | 55.85455 | 14.15137 | 24391 ft | 303 kts | 237° |
| 2026-04-30 21:11 | 55.84223 | 14.12146 | 24391 ft | 303 kts | 237° |
| 2026-04-30 21:12 | 55.82975 | 14.09119 | 24392 ft | 303 kts | 237° |
| 2026-04-30 21:12 | 55.81728 | 14.06099 | 24391 ft | 303 kts | 237° |
| 2026-04-30 21:12 | 55.80477 | 14.03074 | 24394 ft | 303 kts | 237° |
| 2026-04-30 21:12 | 55.79227 | 14.00053 | 24391 ft | 304 kts | 237° |
| 2026-04-30 21:13 | 55.77949 | 13.97066 | 24393 ft | 304 kts | 231° |
| 2026-04-30 21:13 | 55.76292 | 13.94710 | 24399 ft | 306 kts | 214° |
| 2026-04-30 21:13 | 55.74461 | 13.92664 | 23974 ft | 321 kts | 213° |
| 2026-04-30 21:13 | 55.72578 | 13.90589 | 23234 ft | 317 kts | 213° |
| 2026-04-30 21:14 | 55.70719 | 13.88512 | 22504 ft | 314 kts | 213° |
| 2026-04-30 21:14 | 55.68882 | 13.86449 | 21797 ft | 312 kts | 213° |
| 2026-04-30 21:14 | 55.67056 | 13.84410 | 21112 ft | 310 kts | 213° |
| 2026-04-30 21:14 | 55.65235 | 13.82385 | 20438 ft | 308 kts | 212° |
| 2026-04-30 21:15 | 55.63425 | 13.80372 | 19778 ft | 307 kts | 212° |
| 2026-04-30 21:15 | 55.61623 | 13.78368 | 19135 ft | 305 kts | 212° |
| 2026-04-30 21:15 | 55.59826 | 13.76373 | 18472 ft | 304 kts | 212° |
| 2026-04-30 21:15 | 55.58036 | 13.74388 | 17755 ft | 303 kts | 212° |
| 2026-04-30 21:16 | 55.56254 | 13.72413 | 17047 ft | 301 kts | 212° |
| 2026-04-30 21:16 | 55.54483 | 13.70454 | 16372 ft | 300 kts | 212° |
| 2026-04-30 21:16 | 55.52717 | 13.68501 | 15702 ft | 299 kts | 212° |
| 2026-04-30 21:16 | 55.50960 | 13.66561 | 15048 ft | 297 kts | 212° |
| 2026-04-30 21:17 | 55.49211 | 13.64631 | 14406 ft | 295 kts | 211° |
| 2026-04-30 21:17 | 55.47475 | 13.62719 | 13719 ft | 294 kts | 211° |
| 2026-04-30 21:17 | 55.45745 | 13.60815 | 13015 ft | 291 kts | 212° |
| 2026-04-30 21:17 | 55.44077 | 13.58842 | 12320 ft | 287 kts | 220° |
| 2026-04-30 21:18 | 55.42840 | 13.56137 | 11636 ft | 282 kts | 243° |
| 2026-04-30 21:18 | 55.42216 | 13.52931 | 10972 ft | 274 kts | 264° |
| 2026-04-30 21:18 | 55.42255 | 13.49675 | 10316 ft | 262 kts | 287° |
| 2026-04-30 21:18 | 55.42725 | 13.46609 | 9612 ft | 258 kts | 289° |
| 2026-04-30 21:19 | 55.43229 | 13.43590 | 8916 ft | 256 kts | 290° |
| 2026-04-30 21:19 | 55.43752 | 13.40617 | 8412 ft | 248 kts | 291° |
| 2026-04-30 21:19 | 55.44232 | 13.37851 | 8402 ft | 224 kts | 291° |
| 2026-04-30 21:19 | 55.44664 | 13.35329 | 8396 ft | 207 kts | 291° |
| 2026-04-30 21:20 | 55.45071 | 13.32966 | 8300 ft | 198 kts | 291° |
| 2026-04-30 21:20 | 55.45466 | 13.30677 | 8170 ft | 193 kts | 291° |
| 2026-04-30 21:20 | 55.45818 | 13.28458 | 8048 ft | 189 kts | 283° |
| 2026-04-30 21:20 | 55.45650 | 13.26173 | 7994 ft | 184 kts | 250° |
| 2026-04-30 21:21 | 55.45144 | 13.24225 | 7990 ft | 171 kts | 248° |
| 2026-04-30 21:21 | 55.44614 | 13.22227 | 7993 ft | 195 kts | 248° |
| 2026-04-30 21:21 | 55.43364 | 13.17445 | 7994 ft | 230 kts | 248° |
| 2026-04-30 21:22 | 55.42678 | 13.14836 | 7999 ft | 239 kts | 247° |
| 2026-04-30 21:22 | 55.40507 | 13.06608 | 7996 ft | 251 kts | 247° |
| 2026-04-30 21:23 | 55.39770 | 13.03823 | 7998 ft | 252 kts | 247° |
| 2026-04-30 21:23 | 55.38848 | 13.01207 | 7910 ft | 257 kts | 228° |
| 2026-04-30 21:23 | 55.35841 | 12.97363 | 7090 ft | 277 kts | 214° |
| 2026-04-30 21:24 | 55.34258 | 12.95449 | 6599 ft | 275 kts | 214° |
| 2026-04-30 21:24 | 55.32870 | 12.93209 | 6079 ft | 271 kts | 234° |
| 2026-04-30 21:24 | 55.32078 | 12.90367 | 6004 ft | 248 kts | 255° |
| 2026-04-30 21:24 | 55.31881 | 12.87501 | 5994 ft | 229 kts | 274° |
| 2026-04-30 21:25 | 55.32849 | 12.82645 | 5996 ft | 200 kts | 309° |
| 2026-04-30 21:25 | 55.33666 | 12.80737 | 5998 ft | 192 kts | 310° |
| 2026-04-30 21:25 | 55.34443 | 12.78905 | 5999 ft | 187 kts | 310° |
| 2026-04-30 21:26 | 55.36003 | 12.75411 | 6001 ft | 177 kts | 312° |
| 2026-04-30 21:26 | 55.36754 | 12.73705 | 6000 ft | 175 kts | 311° |
| 2026-04-30 21:27 | 55.38245 | 12.70366 | 6000 ft | 172 kts | 311° |
| 2026-04-30 21:27 | 55.38989 | 12.68723 | 6000 ft | 171 kts | 311° |
| 2026-04-30 21:27 | 55.39736 | 12.67070 | 6003 ft | 175 kts | 311° |
| 2026-04-30 21:28 | 55.41369 | 12.63458 | 5590 ft | 203 kts | 310° |
| 2026-04-30 21:28 | 55.42254 | 12.61454 | 5345 ft | 211 kts | 306° |
| 2026-04-30 21:28 | 55.42398 | 12.56350 | 5017 ft | 219 kts | 243° |
| 2026-04-30 21:29 | 55.41438 | 12.54336 | 5017 ft | 213 kts | 221° |
| 2026-04-30 21:29 | 55.38171 | 12.49347 | 5013 ft | 203 kts | 220° |
| 2026-04-30 21:30 | 55.36320 | 12.45784 | 4999 ft | 197 kts | 256° |
| 2026-04-30 21:31 | 55.37688 | 12.39195 | 4558 ft | 207 kts | 310° |
| 2026-04-30 21:31 | 55.40084 | 12.36636 | 4006 ft | 214 kts | 2° |
| 2026-04-30 21:32 | 55.43044 | 12.37552 | 3462 ft | 217 kts | 16° |
| 2026-04-30 21:32 | 55.44351 | 12.38801 | 3182 ft | 218 kts | 33° |
| 2026-04-30 21:32 | 55.45591 | 12.40336 | 2907 ft | 216 kts | 29° |
| 2026-04-30 21:32 | 55.46899 | 12.41593 | 2627 ft | 213 kts | 31° |
| 2026-04-30 21:33 | 55.48071 | 12.43177 | 2353 ft | 211 kts | 37° |
| 2026-04-30 21:33 | 55.50259 | 12.46553 | 1784 ft | 207 kts | 37° |
| 2026-04-30 21:33 | 55.51337 | 12.48205 | 1615 ft | 199 kts | 38° |
| 2026-04-30 21:34 | 55.52333 | 12.49752 | 1611 ft | 183 kts | 37° |
| 2026-04-30 21:34 | 55.54111 | 12.52484 | 1394 ft | 163 kts | 37° |
| 2026-04-30 21:34 | 55.54944 | 12.53772 | 1181 ft | 152 kts | 37° |
| 2026-04-30 21:35 | 55.55680 | 12.54904 | 986 ft | 132 kts | 36° |
| 2026-04-30 21:35 | 55.56343 | 12.55924 | 815 ft | 122 kts | 37° |
| 2026-04-30 21:35 | 55.56967 | 12.56887 | 651 ft | 118 kts | 37° |
| 2026-04-30 21:35 | 55.57569 | 12.57816 | 489 ft | 114 kts | 38° |
| 2026-04-30 21:36 | 55.58159 | 12.58725 | 330 ft | 109 kts | 38° |
| 2026-04-30 21:36 | 55.58706 | 12.59572 | 198 ft | 96 kts | 38° |
| 2026-04-30 21:37 | 55.59865 | 12.61331 | 20 ft | 65 kts | 43° |
| 2026-04-30 21:37 | 55.60057 | 12.61487 | 22 ft | 15 kts | 300° |
| 2026-04-30 21:37 | 55.60161 | 12.61550 | 21 ft | 15 kts | 42° |
| 2026-04-30 21:37 | 55.60273 | 12.61723 | 20 ft | 27 kts | 41° |
| 2026-04-30 21:38 | 55.60428 | 12.61958 | 20 ft | 32 kts | 43° |
| 2026-04-30 21:38 | 55.60594 | 12.62223 | 21 ft | 26 kts | 39° |
| 2026-04-30 21:38 | 55.60772 | 12.62400 | 20 ft | 33 kts | 19° |
| 2026-04-30 21:38 | 55.60968 | 12.62672 | 20 ft | 38 kts | 41° |
| 2026-04-30 21:39 | 55.61171 | 12.62988 | 20 ft | 32 kts | 40° |
| 2026-04-30 21:39 | 55.61353 | 12.63270 | 20 ft | 38 kts | 41° |
| 2026-04-30 21:39 | 55.61561 | 12.63591 | 20 ft | 41 kts | 40° |
| 2026-04-30 21:39 | 55.61749 | 12.63881 | 20 ft | 37 kts | 41° |
| 2026-04-30 21:40 | 55.61928 | 12.64118 | 20 ft | 34 kts | 31° |
| 2026-04-30 21:40 | 55.62158 | 12.64310 | 19 ft | 39 kts | 24° |
| 2026-04-30 21:40 | 55.62309 | 12.64635 | 20 ft | 35 kts | 69° |
| 2026-04-30 21:40 | 55.62237 | 12.64940 | 20 ft | 31 kts | 121° |
| 2026-04-30 21:41 | 55.62226 | 12.65229 | 20 ft | 23 kts | 127° |
| 2026-04-30 21:41 | 55.62287 | 12.65438 | 20 ft | 29 kts | 26° |
| 2026-04-30 21:41 | 55.62357 | 12.65528 | 20 ft | 0 kts | 36° |